sensor_id;sensor_type;location;lat;lon;timestamp;temperature;humidity
18974;DHT22;9621;48.690;9.466;2023-04-06T00:01:01;-3.90;91.10
18974;DHT22;9621;48.690;9.466;2023-04-06T00:03:28;-3.90;90.80
18974;DHT22;9621;48.690;9.466;2023-04-06T00:05:55;-3.90;90.90
18974;DHT22;9621;48.690;9.466;2023-04-06T00:08:22;-3.90;90.90
18974;DHT22;9621;48.690;9.466;2023-04-06T00:10:49;-4.00;91.20
18974;DHT22;9621;48.690;9.466;2023-04-06T00:13:18;-4.00;91.20
18974;DHT22;9621;48.690;9.466;2023-04-06T00:15:45;-4.00;91.30
18974;DHT22;9621;48.690;9.466;2023-04-06T00:18:12;-4.00;91.20
18974;DHT22;9621;48.690;9.466;2023-04-06T00:20:40;-4.10;91.20
18974;DHT22;9621;48.690;9.466;2023-04-06T00:23:07;-4.10;91.40
18974;DHT22;9621;48.690;9.466;2023-04-06T00:25:34;-4.10;91.70
18974;DHT22;9621;48.690;9.466;2023-04-06T00:28:01;-4.10;91.30
18974;DHT22;9621;48.690;9.466;2023-04-06T00:30:30;-4.20;91.40
18974;DHT22;9621;48.690;9.466;2023-04-06T00:32:57;-4.20;91.60
18974;DHT22;9621;48.690;9.466;2023-04-06T00:35:24;-4.20;91.30
18974;DHT22;9621;48.690;9.466;2023-04-06T00:37:51;-4.20;91.50
18974;DHT22;9621;48.690;9.466;2023-04-06T00:40:18;-4.20;91.50
18974;DHT22;9621;48.690;9.466;2023-04-06T00:42:46;-4.30;91.60
18974;DHT22;9621;48.690;9.466;2023-04-06T00:45:13;-4.20;91.80
18974;DHT22;9621;48.690;9.466;2023-04-06T00:47:41;-4.30;91.70
18974;DHT22;9621;48.690;9.466;2023-04-06T00:50:09;-4.30;91.90
18974;DHT22;9621;48.690;9.466;2023-04-06T00:52:36;-4.30;92.50
18974;DHT22;9621;48.690;9.466;2023-04-06T00:55:03;-4.40;91.90
18974;DHT22;9621;48.690;9.466;2023-04-06T00:57:31;-4.40;92.70
18974;DHT22;9621;48.690;9.466;2023-04-06T00:59:58;-4.40;92.20
18974;DHT22;9621;48.690;9.466;2023-04-06T01:02:25;-4.40;92.20
18974;DHT22;9621;48.690;9.466;2023-04-06T01:04:54;-4.40;92.20
18974;DHT22;9621;48.690;9.466;2023-04-06T01:07:21;-4.40;93.00
18974;DHT22;9621;48.690;9.466;2023-04-06T01:09:48;-4.40;92.10
18974;DHT22;9621;48.690;9.466;2023-04-06T01:12:15;-4.30;92.10
18974;DHT22;9621;48.690;9.466;2023-04-06T01:14:43;-4.40;92.20
18974;DHT22;9621;48.690;9.466;2023-04-06T01:17:10;-4.50;92.60
18974;DHT22;9621;48.690;9.466;2023-04-06T01:19:37;-4.50;92.40
18974;DHT22;9621;48.690;9.466;2023-04-06T01:22:07;-4.40;92.80
18974;DHT22;9621;48.690;9.466;2023-04-06T01:24:35;-4.50;92.40
18974;DHT22;9621;48.690;9.466;2023-04-06T01:27:02;-4.50;92.30
18974;DHT22;9621;48.690;9.466;2023-04-06T01:29:29;-4.50;92.30
18974;DHT22;9621;48.690;9.466;2023-04-06T01:31:56;-4.50;92.30
18974;DHT22;9621;48.690;9.466;2023-04-06T01:34:23;-4.60;92.30
18974;DHT22;9621;48.690;9.466;2023-04-06T01:36:50;-4.60;92.40
18974;DHT22;9621;48.690;9.466;2023-04-06T01:39:17;-4.70;92.40
18974;DHT22;9621;48.690;9.466;2023-04-06T01:41:46;-4.60;92.60
18974;DHT22;9621;48.690;9.466;2023-04-06T01:44:16;-4.60;92.80
18974;DHT22;9621;48.690;9.466;2023-04-06T01:46:44;-4.70;92.80
18974;DHT22;9621;48.690;9.466;2023-04-06T01:49:11;-4.70;92.70
18974;DHT22;9621;48.690;9.466;2023-04-06T01:51:38;-4.70;92.70
18974;DHT22;9621;48.690;9.466;2023-04-06T01:54:06;-4.70;92.60
18974;DHT22;9621;48.690;9.466;2023-04-06T01:56:33;-4.70;92.60
18974;DHT22;9621;48.690;9.466;2023-04-06T01:59:01;-4.80;92.70
18974;DHT22;9621;48.690;9.466;2023-04-06T02:01:28;-4.80;93.00
18974;DHT22;9621;48.690;9.466;2023-04-06T02:03:55;-4.80;92.90
18974;DHT22;9621;48.690;9.466;2023-04-06T02:06:22;-4.90;92.90
18974;DHT22;9621;48.690;9.466;2023-04-06T02:08:49;-4.90;92.90
18974;DHT22;9621;48.690;9.466;2023-04-06T02:11:16;-5.00;93.00
18974;DHT22;9621;48.690;9.466;2023-04-06T02:13:43;-4.90;93.00
18974;DHT22;9621;48.690;9.466;2023-04-06T02:16:11;-5.00;93.00
18974;DHT22;9621;48.690;9.466;2023-04-06T02:18:38;-4.90;93.20
18974;DHT22;9621;48.690;9.466;2023-04-06T02:21:05;-5.00;93.00
18974;DHT22;9621;48.690;9.466;2023-04-06T02:23:32;-5.00;93.00
18974;DHT22;9621;48.690;9.466;2023-04-06T02:25:59;-5.10;93.10
18974;DHT22;9621;48.690;9.466;2023-04-06T02:28:26;-5.10;93.10
18974;DHT22;9621;48.690;9.466;2023-04-06T02:30:53;-5.10;93.30
18974;DHT22;9621;48.690;9.466;2023-04-06T02:33:22;-5.10;93.40
18974;DHT22;9621;48.690;9.466;2023-04-06T02:35:49;-5.20;93.40
18974;DHT22;9621;48.690;9.466;2023-04-06T02:38:16;-5.20;93.80
18974;DHT22;9621;48.690;9.466;2023-04-06T02:40:43;-5.20;93.50
18974;DHT22;9621;48.690;9.466;2023-04-06T02:43:09;-5.30;93.60
18974;DHT22;9621;48.690;9.466;2023-04-06T02:45:36;-5.30;93.60
18974;DHT22;9621;48.690;9.466;2023-04-06T02:48:04;-5.30;93.60
18974;DHT22;9621;48.690;9.466;2023-04-06T02:50:33;-5.30;93.70
18974;DHT22;9621;48.690;9.466;2023-04-06T02:53:00;-5.30;93.90
18974;DHT22;9621;48.690;9.466;2023-04-06T02:55:27;-5.30;93.90
18974;DHT22;9621;48.690;9.466;2023-04-06T02:57:53;-5.30;94.00
18974;DHT22;9621;48.690;9.466;2023-04-06T03:00:20;-5.40;93.90
18974;DHT22;9621;48.690;9.466;2023-04-06T03:02:47;-5.40;93.90
18974;DHT22;9621;48.690;9.466;2023-04-06T03:05:14;-5.40;93.90
18974;DHT22;9621;48.690;9.466;2023-04-06T03:07:43;-5.40;93.90
18974;DHT22;9621;48.690;9.466;2023-04-06T03:10:11;-5.50;94.10
18974;DHT22;9621;48.690;9.466;2023-04-06T03:12:38;-5.50;94.00
18974;DHT22;9621;48.690;9.466;2023-04-06T03:15:08;-5.50;94.00
18974;DHT22;9621;48.690;9.466;2023-04-06T03:17:35;-5.50;94.10
18974;DHT22;9621;48.690;9.466;2023-04-06T03:20:02;-5.50;94.20
18974;DHT22;9621;48.690;9.466;2023-04-06T03:22:29;-5.50;94.20
18974;DHT22;9621;48.690;9.466;2023-04-06T03:24:58;-5.50;94.10
18974;DHT22;9621;48.690;9.466;2023-04-06T03:27:25;-5.60;94.20
18974;DHT22;9621;48.690;9.466;2023-04-06T03:29:52;-5.70;94.00
18974;DHT22;9621;48.690;9.466;2023-04-06T03:32:19;-5.60;94.10
18974;DHT22;9621;48.690;9.466;2023-04-06T03:34:46;-5.70;94.20
18974;DHT22;9621;48.690;9.466;2023-04-06T03:37:13;-5.70;94.20
18974;DHT22;9621;48.690;9.466;2023-04-06T03:39:40;-5.70;94.30
18974;DHT22;9621;48.690;9.466;2023-04-06T03:42:08;-5.70;94.40
18974;DHT22;9621;48.690;9.466;2023-04-06T03:44:35;-5.80;94.40
18974;DHT22;9621;48.690;9.466;2023-04-06T03:47:02;-5.70;94.40
18974;DHT22;9621;48.690;9.466;2023-04-06T03:49:29;-5.80;94.50
18974;DHT22;9621;48.690;9.466;2023-04-06T03:51:56;-5.80;94.60
18974;DHT22;9621;48.690;9.466;2023-04-06T03:54:23;-5.80;94.80
18974;DHT22;9621;48.690;9.466;2023-04-06T03:56:50;-5.60;94.90
18974;DHT22;9621;48.690;9.466;2023-04-06T03:59:19;-5.80;94.80
18974;DHT22;9621;48.690;9.466;2023-04-06T04:01:46;-5.70;94.90
18974;DHT22;9621;48.690;9.466;2023-04-06T04:04:13;-5.70;94.80
18974;DHT22;9621;48.690;9.466;2023-04-06T04:06:40;-5.70;94.80
18974;DHT22;9621;48.690;9.466;2023-04-06T04:09:07;-5.80;94.80
18974;DHT22;9621;48.690;9.466;2023-04-06T04:11:33;-5.80;95.00
18974;DHT22;9621;48.690;9.466;2023-04-06T04:14:00;-5.80;95.00
18974;DHT22;9621;48.690;9.466;2023-04-06T04:16:29;-5.80;95.00
18974;DHT22;9621;48.690;9.466;2023-04-06T04:18:56;-5.80;95.20
18974;DHT22;9621;48.690;9.466;2023-04-06T04:21:24;-5.80;95.10
18974;DHT22;9621;48.690;9.466;2023-04-06T04:23:52;-5.80;95.10
18974;DHT22;9621;48.690;9.466;2023-04-06T04:26:19;-5.80;95.20
18974;DHT22;9621;48.690;9.466;2023-04-06T04:28:46;-5.80;95.20
18974;DHT22;9621;48.690;9.466;2023-04-06T04:31:13;-5.80;95.20
18974;DHT22;9621;48.690;9.466;2023-04-06T04:33:42;-5.90;95.20
18974;DHT22;9621;48.690;9.466;2023-04-06T04:36:09;-5.90;95.40
18974;DHT22;9621;48.690;9.466;2023-04-06T04:38:37;-5.90;95.30
18974;DHT22;9621;48.690;9.466;2023-04-06T04:41:04;-5.90;95.30
18974;DHT22;9621;48.690;9.466;2023-04-06T04:43:31;-6.00;95.30
18974;DHT22;9621;48.690;9.466;2023-04-06T04:45:57;-6.00;95.40
18974;DHT22;9621;48.690;9.466;2023-04-06T04:48:25;-6.00;95.40
18974;DHT22;9621;48.690;9.466;2023-04-06T04:50:53;-6.00;95.40
18974;DHT22;9621;48.690;9.466;2023-04-06T04:53:21;-6.00;95.60
18974;DHT22;9621;48.690;9.466;2023-04-06T04:55:48;-6.00;95.50
18974;DHT22;9621;48.690;9.466;2023-04-06T04:58:15;-6.00;95.60
18974;DHT22;9621;48.690;9.466;2023-04-06T05:00:42;-6.00;95.60
18974;DHT22;9621;48.690;9.466;2023-04-06T05:03:09;-6.00;95.60
18974;DHT22;9621;48.690;9.466;2023-04-06T05:05:38;-6.00;95.70
18974;DHT22;9621;48.690;9.466;2023-04-06T05:08:07;-5.90;95.90
18974;DHT22;9621;48.690;9.466;2023-04-06T05:10:34;-5.80;96.10
18974;DHT22;9621;48.690;9.466;2023-04-06T05:13:01;-5.70;96.30
18974;DHT22;9621;48.690;9.466;2023-04-06T05:15:28;-5.50;96.30
18974;DHT22;9621;48.690;9.466;2023-04-06T05:17:55;-5.30;96.30
18974;DHT22;9621;48.690;9.466;2023-04-06T05:20:22;-5.10;96.20
18974;DHT22;9621;48.690;9.466;2023-04-06T05:22:49;-4.90;96.20
18974;DHT22;9621;48.690;9.466;2023-04-06T05:25:19;-4.60;96.20
18974;DHT22;9621;48.690;9.466;2023-04-06T05:27:46;-4.20;96.30
18974;DHT22;9621;48.690;9.466;2023-04-06T05:30:13;-4.10;96.10
18974;DHT22;9621;48.690;9.466;2023-04-06T05:32:41;-3.70;96.00
18974;DHT22;9621;48.690;9.466;2023-04-06T05:35:09;-3.40;95.90
18974;DHT22;9621;48.690;9.466;2023-04-06T05:37:36;-3.10;95.80
18974;DHT22;9621;48.690;9.466;2023-04-06T05:40:05;-2.70;95.60
18974;DHT22;9621;48.690;9.466;2023-04-06T05:42:37;-2.30;95.30
18974;DHT22;9621;48.690;9.466;2023-04-06T05:45:05;-1.90;95.20
18974;DHT22;9621;48.690;9.466;2023-04-06T05:47:33;-1.60;95.00
18974;DHT22;9621;48.690;9.466;2023-04-06T05:50:00;-1.20;94.80
18974;DHT22;9621;48.690;9.466;2023-04-06T05:52:26;-0.80;94.70
18974;DHT22;9621;48.690;9.466;2023-04-06T05:54:54;-0.40;94.60
18974;DHT22;9621;48.690;9.466;2023-04-06T05:57:21;-0.10;94.30
18974;DHT22;9621;48.690;9.466;2023-04-06T05:59:49;0.40;94.00
18974;DHT22;9621;48.690;9.466;2023-04-06T06:02:16;0.80;93.70
18974;DHT22;9621;48.690;9.466;2023-04-06T06:04:43;1.10;94.00
18974;DHT22;9621;48.690;9.466;2023-04-06T06:07:10;1.60;93.50
18974;DHT22;9621;48.690;9.466;2023-04-06T06:09:37;1.90;93.10
18974;DHT22;9621;48.690;9.466;2023-04-06T06:12:04;2.30;92.70
18974;DHT22;9621;48.690;9.466;2023-04-06T06:14:31;2.60;92.40
18974;DHT22;9621;48.690;9.466;2023-04-06T06:16:59;3.00;92.20
18974;DHT22;9621;48.690;9.466;2023-04-06T06:19:26;3.40;91.60
18974;DHT22;9621;48.690;9.466;2023-04-06T06:21:53;3.70;91.60
18974;DHT22;9621;48.690;9.466;2023-04-06T06:24:20;4.10;91.20
18974;DHT22;9621;48.690;9.466;2023-04-06T06:26:47;4.40;90.60
18974;DHT22;9621;48.690;9.466;2023-04-06T06:29:15;4.70;90.40
18974;DHT22;9621;48.690;9.466;2023-04-06T06:31:42;5.00;90.30
18974;DHT22;9621;48.690;9.466;2023-04-06T06:34:10;5.30;90.10
18974;DHT22;9621;48.690;9.466;2023-04-06T06:36:38;5.60;89.30
18974;DHT22;9621;48.690;9.466;2023-04-06T06:39:05;6.00;89.40
18974;DHT22;9621;48.690;9.466;2023-04-06T06:41:32;6.30;88.80
18974;DHT22;9621;48.690;9.466;2023-04-06T06:43:59;6.60;87.50
18974;DHT22;9621;48.690;9.466;2023-04-06T06:46:26;6.90;87.20
18974;DHT22;9621;48.690;9.466;2023-04-06T06:48:53;7.20;86.30
18974;DHT22;9621;48.690;9.466;2023-04-06T06:51:22;7.50;85.60
18974;DHT22;9621;48.690;9.466;2023-04-06T06:53:49;7.70;84.00
18974;DHT22;9621;48.690;9.466;2023-04-06T06:56:16;8.00;84.20
18974;DHT22;9621;48.690;9.466;2023-04-06T06:58:42;8.30;83.50
18974;DHT22;9621;48.690;9.466;2023-04-06T07:01:11;8.50;82.90
18974;DHT22;9621;48.690;9.466;2023-04-06T07:03:38;8.80;82.60
18974;DHT22;9621;48.690;9.466;2023-04-06T07:06:06;9.10;81.80
18974;DHT22;9621;48.690;9.466;2023-04-06T07:08:34;9.40;80.70
18974;DHT22;9621;48.690;9.466;2023-04-06T07:11:01;9.70;79.50
18974;DHT22;9621;48.690;9.466;2023-04-06T07:13:29;9.90;79.10
18974;DHT22;9621;48.690;9.466;2023-04-06T07:15:56;10.20;78.20
18974;DHT22;9621;48.690;9.466;2023-04-06T07:18:23;10.30;76.90
18974;DHT22;9621;48.690;9.466;2023-04-06T07:20:50;10.40;75.70
18974;DHT22;9621;48.690;9.466;2023-04-06T07:23:18;10.40;75.50
18974;DHT22;9621;48.690;9.466;2023-04-06T07:25:46;10.50;74.70
18974;DHT22;9621;48.690;9.466;2023-04-06T07:28:16;10.40;73.30
18974;DHT22;9621;48.690;9.466;2023-04-06T07:30:43;10.40;73.30
18974;DHT22;9621;48.690;9.466;2023-04-06T07:33:11;10.30;73.70
18974;DHT22;9621;48.690;9.466;2023-04-06T07:35:38;10.30;73.50
18974;DHT22;9621;48.690;9.466;2023-04-06T07:38:05;10.30;74.20
18974;DHT22;9621;48.690;9.466;2023-04-06T07:40:32;10.50;74.10
18974;DHT22;9621;48.690;9.466;2023-04-06T07:43:01;10.70;74.00
18974;DHT22;9621;48.690;9.466;2023-04-06T07:45:31;10.90;73.40
18974;DHT22;9621;48.690;9.466;2023-04-06T07:47:58;11.10;74.10
18974;DHT22;9621;48.690;9.466;2023-04-06T07:50:25;11.50;74.30
18974;DHT22;9621;48.690;9.466;2023-04-06T07:52:52;11.90;74.10
18974;DHT22;9621;48.690;9.466;2023-04-06T07:55:19;12.20;73.60
18974;DHT22;9621;48.690;9.466;2023-04-06T07:57:46;12.60;73.00
18974;DHT22;9621;48.690;9.466;2023-04-06T08:00:15;13.00;72.30
18974;DHT22;9621;48.690;9.466;2023-04-06T08:02:42;13.30;70.40
18974;DHT22;9621;48.690;9.466;2023-04-06T08:05:09;13.60;69.90
18974;DHT22;9621;48.690;9.466;2023-04-06T08:07:36;13.80;69.30
18974;DHT22;9621;48.690;9.466;2023-04-06T08:10:04;14.10;69.60
18974;DHT22;9621;48.690;9.466;2023-04-06T08:12:32;14.30;67.70
18974;DHT22;9621;48.690;9.466;2023-04-06T08:14:59;14.50;67.40
18974;DHT22;9621;48.690;9.466;2023-04-06T08:17:29;14.80;67.60
18974;DHT22;9621;48.690;9.466;2023-04-06T08:19:56;15.00;65.90
18974;DHT22;9621;48.690;9.466;2023-04-06T08:22:23;15.30;67.30
18974;DHT22;9621;48.690;9.466;2023-04-06T08:24:50;15.60;66.40
18974;DHT22;9621;48.690;9.466;2023-04-06T08:27:18;15.80;65.20
18974;DHT22;9621;48.690;9.466;2023-04-06T08:29:44;16.10;64.50
18974;DHT22;9621;48.690;9.466;2023-04-06T08:32:11;16.20;62.50
18974;DHT22;9621;48.690;9.466;2023-04-06T08:34:41;16.10;61.70
18974;DHT22;9621;48.690;9.466;2023-04-06T08:37:08;16.00;60.10
18974;DHT22;9621;48.690;9.466;2023-04-06T08:39:35;15.90;60.40
18974;DHT22;9621;48.690;9.466;2023-04-06T08:42:02;15.70;60.50
18974;DHT22;9621;48.690;9.466;2023-04-06T08:44:30;15.70;61.20
18974;DHT22;9621;48.690;9.466;2023-04-06T08:46:59;15.60;61.00
18974;DHT22;9621;48.690;9.466;2023-04-06T08:49:27;15.60;60.90
18974;DHT22;9621;48.690;9.466;2023-04-06T08:51:56;15.70;61.60
18974;DHT22;9621;48.690;9.466;2023-04-06T08:54:23;16.00;60.50
18974;DHT22;9621;48.690;9.466;2023-04-06T08:56:50;16.10;61.10
18974;DHT22;9621;48.690;9.466;2023-04-06T08:59:18;16.30;60.80
18974;DHT22;9621;48.690;9.466;2023-04-06T09:01:46;16.50;59.80
18974;DHT22;9621;48.690;9.466;2023-04-06T09:04:13;16.50;58.20
18974;DHT22;9621;48.690;9.466;2023-04-06T09:06:41;16.50;57.80
18974;DHT22;9621;48.690;9.466;2023-04-06T09:09:09;16.40;57.70
18974;DHT22;9621;48.690;9.466;2023-04-06T09:11:44;16.20;57.30
18974;DHT22;9621;48.690;9.466;2023-04-06T09:14:12;16.30;56.50
18974;DHT22;9621;48.690;9.466;2023-04-06T09:16:39;16.40;57.90
18974;DHT22;9621;48.690;9.466;2023-04-06T09:19:07;16.30;57.40
18974;DHT22;9621;48.690;9.466;2023-04-06T09:21:35;16.40;58.40
18974;DHT22;9621;48.690;9.466;2023-04-06T09:24:03;16.40;58.50
18974;DHT22;9621;48.690;9.466;2023-04-06T09:26:32;16.40;59.20
18974;DHT22;9621;48.690;9.466;2023-04-06T09:29:01;16.40;58.80
18974;DHT22;9621;48.690;9.466;2023-04-06T09:31:30;16.30;58.80
18974;DHT22;9621;48.690;9.466;2023-04-06T09:33:59;16.00;57.20
18974;DHT22;9621;48.690;9.466;2023-04-06T09:36:33;15.80;57.60
18974;DHT22;9621;48.690;9.466;2023-04-06T09:39:01;15.50;57.10
18974;DHT22;9621;48.690;9.466;2023-04-06T09:41:30;15.30;58.80
18974;DHT22;9621;48.690;9.466;2023-04-06T09:44:06;15.30;60.10
18974;DHT22;9621;48.690;9.466;2023-04-06T09:46:35;15.30;58.80
18974;DHT22;9621;48.690;9.466;2023-04-06T09:49:03;15.40;61.30
18974;DHT22;9621;48.690;9.466;2023-04-06T09:51:35;15.50;61.50
18974;DHT22;9621;48.690;9.466;2023-04-06T09:54:03;15.70;61.40
18974;DHT22;9621;48.690;9.466;2023-04-06T09:56:33;15.90;62.00
18974;DHT22;9621;48.690;9.466;2023-04-06T09:59:10;16.20;60.80
18974;DHT22;9621;48.690;9.466;2023-04-06T10:01:38;16.60;57.20
18974;DHT22;9621;48.690;9.466;2023-04-06T10:04:13;17.00;59.40
18974;DHT22;9621;48.690;9.466;2023-04-06T10:06:45;17.50;56.70
18974;DHT22;9621;48.690;9.466;2023-04-06T10:09:14;18.00;57.10
18974;DHT22;9621;48.690;9.466;2023-04-06T10:11:42;18.50;56.20
18974;DHT22;9621;48.690;9.466;2023-04-06T10:14:10;18.90;53.80
18974;DHT22;9621;48.690;9.466;2023-04-06T10:16:38;19.20;51.10
18974;DHT22;9621;48.690;9.466;2023-04-06T10:19:12;19.30;50.70
18974;DHT22;9621;48.690;9.466;2023-04-06T10:21:40;19.30;49.40
18974;DHT22;9621;48.690;9.466;2023-04-06T10:24:09;19.20;49.90
18974;DHT22;9621;48.690;9.466;2023-04-06T10:26:37;19.10;49.10
18974;DHT22;9621;48.690;9.466;2023-04-06T10:29:05;19.00;48.60
18974;DHT22;9621;48.690;9.466;2023-04-06T10:31:41;18.80;47.50
18974;DHT22;9621;48.690;9.466;2023-04-06T10:34:09;18.70;46.40
18974;DHT22;9621;48.690;9.466;2023-04-06T10:36:36;18.60;48.60
18974;DHT22;9621;48.690;9.466;2023-04-06T10:39:05;18.50;50.70
18974;DHT22;9621;48.690;9.466;2023-04-06T10:41:33;18.80;50.50
18974;DHT22;9621;48.690;9.466;2023-04-06T10:44:01;19.10;51.00
18974;DHT22;9621;48.690;9.466;2023-04-06T10:46:29;19.50;51.00
18974;DHT22;9621;48.690;9.466;2023-04-06T10:51:27;20.00;45.90
18974;DHT22;9621;48.690;9.466;2023-04-06T10:53:55;19.60;47.70
18974;DHT22;9621;48.690;9.466;2023-04-06T10:56:24;19.90;46.90
18974;DHT22;9621;48.690;9.466;2023-04-06T10:58:54;19.70;45.90
18974;DHT22;9621;48.690;9.466;2023-04-06T11:01:23;19.20;47.00
18974;DHT22;9621;48.690;9.466;2023-04-06T11:03:51;19.20;46.70
18974;DHT22;9621;48.690;9.466;2023-04-06T11:06:21;19.00;48.50
18974;DHT22;9621;48.690;9.466;2023-04-06T11:08:48;19.00;47.80
18974;DHT22;9621;48.690;9.466;2023-04-06T11:11:17;19.00;48.80
18974;DHT22;9621;48.690;9.466;2023-04-06T11:13:46;19.30;49.40
18974;DHT22;9621;48.690;9.466;2023-04-06T11:16:16;19.30;48.70
18974;DHT22;9621;48.690;9.466;2023-04-06T11:18:52;19.40;47.90
18974;DHT22;9621;48.690;9.466;2023-04-06T11:21:30;19.60;48.00
18974;DHT22;9621;48.690;9.466;2023-04-06T11:24:05;19.90;47.70
18974;DHT22;9621;48.690;9.466;2023-04-06T11:26:37;20.10;48.10
18974;DHT22;9621;48.690;9.466;2023-04-06T11:29:04;20.20;46.50
18974;DHT22;9621;48.690;9.466;2023-04-06T11:31:33;20.20;47.80
18974;DHT22;9621;48.690;9.466;2023-04-06T11:34:09;20.10;46.70
18974;DHT22;9621;48.690;9.466;2023-04-06T11:36:40;19.80;44.20
18974;DHT22;9621;48.690;9.466;2023-04-06T11:39:08;19.50;46.00
18974;DHT22;9621;48.690;9.466;2023-04-06T11:41:35;19.30;47.70
18974;DHT22;9621;48.690;9.466;2023-04-06T11:44:03;19.30;48.30
18974;DHT22;9621;48.690;9.466;2023-04-06T11:46:30;19.30;47.60
18974;DHT22;9621;48.690;9.466;2023-04-06T11:48:58;19.40;47.00
18974;DHT22;9621;48.690;9.466;2023-04-06T11:51:26;19.50;46.90
18974;DHT22;9621;48.690;9.466;2023-04-06T11:53:55;19.60;48.10
18974;DHT22;9621;48.690;9.466;2023-04-06T11:56:26;19.80;47.40
18974;DHT22;9621;48.690;9.466;2023-04-06T11:58:55;20.00;46.70
18974;DHT22;9621;48.690;9.466;2023-04-06T12:01:22;20.40;46.80
18974;DHT22;9621;48.690;9.466;2023-04-06T12:03:49;20.60;47.20
18974;DHT22;9621;48.690;9.466;2023-04-06T12:06:17;20.80;47.20
18974;DHT22;9621;48.690;9.466;2023-04-06T12:08:44;21.00;46.30
18974;DHT22;9621;48.690;9.466;2023-04-06T12:11:13;21.20;46.10
18974;DHT22;9621;48.690;9.466;2023-04-06T12:13:40;21.30;45.00
18974;DHT22;9621;48.690;9.466;2023-04-06T12:16:07;21.50;45.50
18974;DHT22;9621;48.690;9.466;2023-04-06T12:18:34;21.60;44.50
18974;DHT22;9621;48.690;9.466;2023-04-06T12:21:01;21.60;44.40
18974;DHT22;9621;48.690;9.466;2023-04-06T12:23:28;21.50;43.60
18974;DHT22;9621;48.690;9.466;2023-04-06T12:25:55;21.30;43.80
18974;DHT22;9621;48.690;9.466;2023-04-06T12:28:24;21.10;43.70
18974;DHT22;9621;48.690;9.466;2023-04-06T12:30:54;20.90;42.10
18974;DHT22;9621;48.690;9.466;2023-04-06T12:33:21;20.60;40.90
18974;DHT22;9621;48.690;9.466;2023-04-06T12:35:48;20.20;40.30
18974;DHT22;9621;48.690;9.466;2023-04-06T12:38:15;19.70;40.70
18974;DHT22;9621;48.690;9.466;2023-04-06T12:40:42;19.30;41.50
18974;DHT22;9621;48.690;9.466;2023-04-06T12:43:09;19.10;41.20
18974;DHT22;9621;48.690;9.466;2023-04-06T12:45:40;18.80;41.00
18974;DHT22;9621;48.690;9.466;2023-04-06T12:48:07;18.60;40.70
18974;DHT22;9621;48.690;9.466;2023-04-06T12:50:34;18.50;41.70
18974;DHT22;9621;48.690;9.466;2023-04-06T12:53:01;18.30;42.40
18974;DHT22;9621;48.690;9.466;2023-04-06T12:55:30;18.30;42.70
18974;DHT22;9621;48.690;9.466;2023-04-06T12:57:59;18.10;42.30
18974;DHT22;9621;48.690;9.466;2023-04-06T13:00:27;18.00;41.80
18974;DHT22;9621;48.690;9.466;2023-04-06T13:02:55;17.90;43.30
18974;DHT22;9621;48.690;9.466;2023-04-06T13:05:22;17.90;43.80
18974;DHT22;9621;48.690;9.466;2023-04-06T13:07:49;18.00;44.60
18974;DHT22;9621;48.690;9.466;2023-04-06T13:10:16;18.20;44.00
18974;DHT22;9621;48.690;9.466;2023-04-06T13:12:43;18.20;44.10
18974;DHT22;9621;48.690;9.466;2023-04-06T13:15:10;18.40;44.90
18974;DHT22;9621;48.690;9.466;2023-04-06T13:17:37;18.60;45.80
18974;DHT22;9621;48.690;9.466;2023-04-06T13:20:07;18.90;45.70
18974;DHT22;9621;48.690;9.466;2023-04-06T13:22:34;19.10;44.60
18974;DHT22;9621;48.690;9.466;2023-04-06T13:25:02;19.40;44.60
18974;DHT22;9621;48.690;9.466;2023-04-06T13:27:29;19.70;43.70
18974;DHT22;9621;48.690;9.466;2023-04-06T13:29:59;19.80;43.40
18974;DHT22;9621;48.690;9.466;2023-04-06T13:32:26;20.00;43.00
18974;DHT22;9621;48.690;9.466;2023-04-06T13:34:54;20.10;42.80
18974;DHT22;9621;48.690;9.466;2023-04-06T13:37:23;20.10;41.80
18974;DHT22;9621;48.690;9.466;2023-04-06T13:39:49;20.00;41.40
18974;DHT22;9621;48.690;9.466;2023-04-06T13:42:16;19.90;40.90
18974;DHT22;9621;48.690;9.466;2023-04-06T13:44:43;19.70;41.00
18974;DHT22;9621;48.690;9.466;2023-04-06T13:47:12;19.40;41.30
18974;DHT22;9621;48.690;9.466;2023-04-06T13:49:39;19.30;41.80
18974;DHT22;9621;48.690;9.466;2023-04-06T13:52:06;19.10;41.90
18974;DHT22;9621;48.690;9.466;2023-04-06T13:54:34;19.10;42.00
18974;DHT22;9621;48.690;9.466;2023-04-06T13:57:01;19.00;37.80
18974;DHT22;9621;48.690;9.466;2023-04-06T13:59:32;18.80;39.40
18974;DHT22;9621;48.690;9.466;2023-04-06T14:01:59;18.60;38.90
18974;DHT22;9621;48.690;9.466;2023-04-06T14:04:26;18.40;40.00
18974;DHT22;9621;48.690;9.466;2023-04-06T14:06:52;18.20;40.30
18974;DHT22;9621;48.690;9.466;2023-04-06T14:09:19;18.10;40.20
18974;DHT22;9621;48.690;9.466;2023-04-06T14:11:48;17.90;40.00
18974;DHT22;9621;48.690;9.466;2023-04-06T14:14:15;17.90;40.50
18974;DHT22;9621;48.690;9.466;2023-04-06T14:16:42;17.90;41.30
18974;DHT22;9621;48.690;9.466;2023-04-06T14:19:09;17.90;41.50
18974;DHT22;9621;48.690;9.466;2023-04-06T14:21:37;17.90;41.30
18974;DHT22;9621;48.690;9.466;2023-04-06T14:24:05;17.90;40.60
18974;DHT22;9621;48.690;9.466;2023-04-06T14:26:32;18.00;40.70
18974;DHT22;9621;48.690;9.466;2023-04-06T14:29:01;17.90;40.20
18974;DHT22;9621;48.690;9.466;2023-04-06T14:31:28;17.70;38.30
18974;DHT22;9621;48.690;9.466;2023-04-06T14:33:55;17.40;39.20
18974;DHT22;9621;48.690;9.466;2023-04-06T14:36:22;17.20;40.00
18974;DHT22;9621;48.690;9.466;2023-04-06T14:38:49;17.00;40.60
18974;DHT22;9621;48.690;9.466;2023-04-06T14:41:18;16.90;40.20
18974;DHT22;9621;48.690;9.466;2023-04-06T14:43:46;16.70;40.30
18974;DHT22;9621;48.690;9.466;2023-04-06T14:46:15;16.60;40.60
18974;DHT22;9621;48.690;9.466;2023-04-06T14:48:42;16.50;40.70
18974;DHT22;9621;48.690;9.466;2023-04-06T14:51:09;16.30;41.20
18974;DHT22;9621;48.690;9.466;2023-04-06T14:53:36;16.30;40.60
18974;DHT22;9621;48.690;9.466;2023-04-06T14:56:03;16.20;40.80
18974;DHT22;9621;48.690;9.466;2023-04-06T14:58:30;16.20;40.10
18974;DHT22;9621;48.690;9.466;2023-04-06T15:00:57;16.10;40.30
18974;DHT22;9621;48.690;9.466;2023-04-06T15:03:28;15.90;40.60
18974;DHT22;9621;48.690;9.466;2023-04-06T15:05:55;15.80;40.50
18974;DHT22;9621;48.690;9.466;2023-04-06T15:08:23;15.60;40.40
18974;DHT22;9621;48.690;9.466;2023-04-06T15:10:50;15.40;40.50
18974;DHT22;9621;48.690;9.466;2023-04-06T15:13:17;15.30;40.30
18974;DHT22;9621;48.690;9.466;2023-04-06T15:15:44;15.10;41.20
18974;DHT22;9621;48.690;9.466;2023-04-06T15:18:12;14.90;41.20
18974;DHT22;9621;48.690;9.466;2023-04-06T15:20:40;14.70;41.20
18974;DHT22;9621;48.690;9.466;2023-04-06T15:23:07;14.60;41.30
18974;DHT22;9621;48.690;9.466;2023-04-06T15:25:34;14.50;41.90
18974;DHT22;9621;48.690;9.466;2023-04-06T15:28:01;14.40;42.40
18974;DHT22;9621;48.690;9.466;2023-04-06T15:30:27;14.40;41.70
18974;DHT22;9621;48.690;9.466;2023-04-06T15:32:58;14.40;42.60
18974;DHT22;9621;48.690;9.466;2023-04-06T15:35:26;14.40;42.50
18974;DHT22;9621;48.690;9.466;2023-04-06T15:37:55;14.40;42.40
18974;DHT22;9621;48.690;9.466;2023-04-06T15:40:22;14.40;42.70
18974;DHT22;9621;48.690;9.466;2023-04-06T15:42:49;14.40;43.40
18974;DHT22;9621;48.690;9.466;2023-04-06T15:45:16;14.40;43.50
18974;DHT22;9621;48.690;9.466;2023-04-06T15:47:44;14.40;43.10
18974;DHT22;9621;48.690;9.466;2023-04-06T15:50:12;14.40;43.00
18974;DHT22;9621;48.690;9.466;2023-04-06T15:52:39;14.40;43.40